createdAt,value
2019-06-01T00:00:39.987Z,101682.34
2019-06-01T00:05:44.583Z,101681.92
2019-06-01T00:10:49.542Z,101686.48
2019-06-01T00:15:53.934Z,101686.50
2019-06-01T00:20:58.150Z,101682.69
2019-06-01T00:26:02.370Z,101681.17
2019-06-01T00:31:06.640Z,101680.52
2019-06-01T00:36:10.886Z,101682.39
2019-06-01T00:41:15.114Z,101681.88
2019-06-01T00:46:19.342Z,101681.78
2019-06-01T00:51:23.533Z,101678.75
2019-06-01T00:56:27.761Z,101680.90
2019-06-01T01:01:31.987Z,101676.79
2019-06-01T01:06:36.201Z,101678.39
2019-06-01T01:11:40.480Z,101683.80
2019-06-01T01:16:45.498Z,101679.15
2019-06-01T01:21:52.149Z,101686.58
2019-06-01T01:26:56.793Z,101680.14
2019-06-01T01:32:01.127Z,101678.72
2019-06-01T01:37:05.362Z,101679.50
2019-06-01T01:42:09.580Z,101676.20
2019-06-01T01:47:14.407Z,101673.98
2019-06-01T01:52:18.733Z,101675.34
2019-06-01T01:57:22.965Z,101668.64
2019-06-01T02:02:27.163Z,101664.47
2019-06-01T02:07:31.366Z,101659.55
2019-06-01T02:12:35.617Z,101661.77
2019-06-01T02:17:39.826Z,101659.66
2019-06-01T02:22:44.034Z,101655.05
2019-06-01T02:27:48.244Z,101651.97
2019-06-01T02:32:53.816Z,101650.80
2019-06-01T02:37:58.645Z,101647.78
2019-06-01T02:43:04.245Z,101643.97
2019-06-01T02:48:09.106Z,101631.80
2019-06-01T02:53:13.326Z,101634.50
2019-06-01T02:58:17.548Z,101635.55
2019-06-01T03:03:21.958Z,101635.69
2019-06-01T03:08:26.848Z,101630.27
2019-06-01T03:13:33.780Z,101638.94
2019-06-01T03:18:39.842Z,101635.53
2019-06-01T03:23:46.562Z,101631.73
2019-06-01T03:28:53.649Z,101637.23
2019-06-01T03:33:57.881Z,101634.69
2019-06-01T03:39:03.971Z,101630.64
2019-06-01T03:44:08.556Z,101626.17
2019-06-01T03:49:12.715Z,101627.39
2019-06-01T03:54:16.932Z,101634.09
2019-06-01T03:59:21.234Z,101634.52
2019-06-01T04:04:25.450Z,101638.03
2019-06-01T04:09:29.652Z,101634.36
2019-06-01T04:14:33.893Z,101635.20
2019-06-01T04:19:38.098Z,101647.31
2019-06-01T04:24:42.320Z,101646.38
2019-06-01T04:29:46.511Z,101648.42
2019-06-01T04:34:50.713Z,101643.02
2019-06-01T04:39:54.922Z,101616.66
2019-06-01T04:44:59.124Z,101650.91
2019-06-01T04:50:04.540Z,101650.64
2019-06-01T04:55:09.111Z,101655.78
2019-06-01T05:00:25.985Z,101664.56
2019-06-01T05:05:20.250Z,101659.45
2019-06-01T05:10:24.457Z,101665.50
2019-06-01T05:15:28.687Z,101663.30
2019-06-01T05:20:32.900Z,101668.34
2019-06-01T05:25:37.116Z,101662.88
2019-06-01T05:30:41.324Z,101664.07
2019-06-01T05:35:45.528Z,101671.34
2019-06-01T05:40:49.754Z,101668.77
2019-06-01T05:45:53.972Z,101673.94
2019-06-01T05:50:58.182Z,101673.65
2019-06-01T05:56:02.415Z,101675.41
2019-06-01T06:01:06.618Z,101679.95
2019-06-01T06:06:11.683Z,101674.70
2019-06-01T06:11:16.973Z,101673.28
2019-06-01T06:16:22.594Z,101673.55
2019-06-01T06:21:26.761Z,101673.55
2019-06-01T06:26:31.004Z,101673.77
2019-06-01T06:31:35.221Z,101683.78
2019-06-01T06:36:39.434Z,101683.78
2019-06-01T06:41:43.649Z,101683.14
2019-06-01T06:46:47.876Z,101667.41
2019-06-01T06:51:52.070Z,101667.41
2019-06-01T06:56:56.286Z,101668.80
2019-06-01T07:02:00.528Z,101667.53
2019-06-01T07:07:04.708Z,101686.45
2019-06-01T07:12:08.944Z,101676.08
2019-06-01T07:17:15.637Z,101667.30
2019-06-01T07:22:19.749Z,101667.07
2019-06-01T07:27:24.177Z,101670.90
2019-06-01T07:32:28.722Z,101670.37
2019-06-01T07:37:33.121Z,101672.84
2019-06-01T07:42:37.331Z,101672.02
2019-06-01T07:47:41.536Z,101670.92
2019-06-01T07:52:45.732Z,101676.39
2019-06-01T07:57:49.953Z,101668.47
2019-06-01T08:02:54.146Z,101680.20
2019-06-01T08:07:58.353Z,101685.28
2019-06-01T08:13:02.612Z,101682.50
2019-06-01T08:18:06.913Z,101675.16
2019-06-01T08:23:11.115Z,101673.44
2019-06-01T08:28:15.330Z,101679.89
2019-06-01T08:33:19.506Z,101669.91
2019-06-01T08:38:23.718Z,101667.42
2019-06-01T08:43:27.947Z,101655.00
2019-06-01T08:48:32.146Z,101652.08
2019-06-01T08:53:36.406Z,101658.86
2019-06-01T08:58:40.599Z,101654.02
2019-06-01T09:03:46.800Z,101643.35
2019-06-01T09:08:50.772Z,101645.17
2019-06-01T09:13:55.006Z,101630.55
2019-06-01T09:18:59.219Z,101632.53
2019-06-01T09:24:03.423Z,101615.03
2019-06-01T09:29:07.636Z,101623.17
2019-06-01T09:34:11.854Z,101627.59
2019-06-01T09:39:16.075Z,101624.80
2019-06-01T09:44:20.325Z,101622.50
2019-06-01T09:49:24.519Z,101617.63
2019-06-01T09:54:29.412Z,101622.09
2019-06-01T09:59:34.642Z,101610.81
2019-06-01T10:04:39.605Z,101612.61
2019-06-01T10:09:43.854Z,101617.08
2019-06-01T10:14:48.068Z,101615.27
2019-06-01T10:19:52.272Z,101603.47
2019-06-01T10:24:56.492Z,101595.80
2019-06-01T10:30:00.752Z,101595.38
2019-06-01T10:35:05.845Z,101594.53
2019-06-01T10:40:11.651Z,101584.41
2019-06-01T10:45:16.852Z,101581.19
2019-06-01T10:50:21.069Z,101573.90
2019-06-01T10:55:25.259Z,101556.50
2019-06-01T11:00:39.658Z,101568.99
2019-06-01T11:05:36.750Z,101567.88
2019-06-01T11:10:41.040Z,101561.38
2019-06-01T11:15:45.178Z,101539.14
2019-06-01T11:20:49.377Z,101535.84
2019-06-01T11:25:53.582Z,101541.62
2019-06-01T11:30:57.767Z,101537.71
2019-06-01T11:36:01.970Z,101543.16
2019-06-01T11:41:06.176Z,101529.02
2019-06-01T11:46:10.381Z,101526.02
2019-06-01T11:51:14.596Z,101525.52
2019-06-01T11:56:18.826Z,101522.75
2019-06-01T12:01:23.155Z,101504.02
2019-06-01T12:06:27.337Z,101503.14
2019-06-01T12:11:31.543Z,101493.78
2019-06-01T12:16:36.387Z,101487.69
2019-06-01T12:21:40.950Z,101483.78
2019-06-01T12:26:45.546Z,101472.53
2019-06-01T12:31:49.845Z,101462.61
2019-06-01T12:36:54.283Z,101453.30
2019-06-01T12:41:58.491Z,101452.25
2019-06-01T12:47:02.696Z,101450.56
2019-06-01T12:52:06.936Z,101423.16
2019-06-01T12:57:11.278Z,101444.86
2019-06-01T13:02:15.442Z,101427.66
2019-06-01T13:07:19.653Z,101422.22
2019-06-01T13:12:23.838Z,101427.05
2019-06-01T13:17:28.036Z,101405.97
2019-06-01T13:22:32.246Z,101417.44
2019-06-01T13:27:38.588Z,101412.17
2019-06-01T13:32:42.553Z,101401.41
2019-06-01T13:37:46.868Z,101401.31
2019-06-01T13:42:51.326Z,101387.47
2019-06-01T13:47:55.616Z,101392.08
2019-06-01T13:52:59.821Z,101380.25
2019-06-01T13:58:04.019Z,101371.61
2019-06-01T14:03:08.220Z,101372.44
2019-06-01T14:08:27.845Z,101363.31
2019-06-01T14:13:18.509Z,101362.19
2019-06-01T14:18:22.715Z,101366.69
2019-06-01T14:23:26.899Z,101362.25
2019-06-01T14:28:31.092Z,101356.64
2019-06-01T14:33:35.287Z,101350.16
2019-06-01T14:38:46.823Z,101350.22
2019-06-01T14:43:45.440Z,101350.67
2019-06-01T14:48:51.583Z,101335.40
2019-06-01T14:53:55.850Z,101345.83
2019-06-01T14:59:02.034Z,101345.29
2019-06-01T15:04:06.035Z,101339.64
2019-06-01T15:09:18.303Z,101334.22
2019-06-01T15:14:16.305Z,101332.39
2019-06-01T15:19:20.497Z,101329.13
2019-06-01T15:24:24.933Z,101329.53
2019-06-01T15:29:29.145Z,101318.73
2019-06-01T15:34:33.422Z,101313.19
2019-06-01T15:39:37.617Z,101327.17
2019-06-01T15:44:41.815Z,101309.77
2019-06-01T15:49:46.006Z,101304.36
2019-06-01T15:54:50.225Z,101307.14
2019-06-01T15:59:54.601Z,101300.30
2019-06-01T16:04:59.285Z,101297.30
2019-06-01T16:10:06.475Z,101303.00
2019-06-01T16:15:10.192Z,101298.16
2019-06-01T16:20:14.600Z,101292.16
2019-06-01T16:25:18.822Z,101290.64
2019-06-01T16:30:23.025Z,101281.83
2019-06-01T16:35:27.242Z,101280.06
2019-06-01T16:40:31.441Z,101276.48
2019-06-01T16:45:35.680Z,101277.45
2019-06-01T16:50:39.871Z,101275.00
2019-06-01T16:55:44.055Z,101271.33
2019-06-01T17:00:48.273Z,101277.25
2019-06-01T17:05:52.452Z,101281.97
2019-06-01T17:10:56.742Z,101277.34
2019-06-01T17:16:03.026Z,101276.97
2019-06-01T17:21:07.628Z,101275.73
2019-06-01T17:26:11.867Z,101274.11
2019-06-01T17:31:16.074Z,101275.94
2019-06-01T17:36:20.729Z,101275.69
2019-06-01T17:41:24.905Z,101270.70
2019-06-01T17:46:29.122Z,101268.50
2019-06-01T17:51:33.344Z,101274.49
2019-06-01T17:56:37.541Z,101263.98
2019-06-01T18:01:42.738Z,101258.98
2019-06-01T18:06:47.064Z,101254.86
2019-06-01T18:11:51.245Z,101253.56
2019-06-01T18:16:55.469Z,101249.09
2019-06-01T18:21:59.676Z,101257.58
2019-06-01T18:27:04.829Z,101261.05
2019-06-01T18:32:09.518Z,101263.50
2019-06-01T18:37:13.806Z,101271.67
2019-06-01T18:42:18.963Z,101278.02
2019-06-01T18:47:32.217Z,101272.75
2019-06-01T18:52:29.052Z,101278.47
2019-06-01T18:57:34.455Z,101278.42
2019-06-01T19:02:38.666Z,101279.72
2019-06-01T19:07:42.898Z,101279.06
2019-06-01T19:12:47.133Z,101287.16
2019-06-01T19:17:51.674Z,101288.09
2019-06-01T19:22:55.897Z,101292.91
2019-06-01T19:28:00.118Z,101291.70
2019-06-01T19:33:04.796Z,101305.27
2019-06-01T19:38:09.472Z,101315.44
2019-06-01T19:43:13.692Z,101314.83
2019-06-01T19:48:18.869Z,101317.42
2019-06-01T19:53:23.309Z,101319.22
2019-06-01T19:58:27.542Z,101317.77
2019-06-01T20:03:31.852Z,101322.31
2019-06-01T20:08:36.073Z,101322.88
2019-06-01T20:13:40.301Z,101324.08
2019-06-01T20:18:44.574Z,101328.10
2019-06-01T20:23:48.918Z,101330.38
2019-06-01T20:28:53.130Z,101327.54
2019-06-01T20:33:58.063Z,101333.24
2019-06-01T20:39:04.163Z,101338.27
2019-06-01T20:44:08.308Z,101333.47
2019-06-01T20:49:12.765Z,101331.95
2019-06-01T20:54:16.975Z,101326.66
2019-06-01T20:59:22.937Z,101322.45
2019-06-01T21:04:27.266Z,101322.55
2019-06-01T21:09:31.489Z,101319.59
2019-06-01T21:14:36.957Z,101320.02
2019-06-01T21:19:41.494Z,101325.27
2019-06-01T21:24:45.680Z,101323.64
2019-06-01T21:29:50.092Z,101314.58
2019-06-01T21:34:54.296Z,101309.73
2019-06-01T21:39:58.534Z,101311.90
2019-06-01T21:45:02.750Z,101324.96
2019-06-01T21:50:07.384Z,101322.98
2019-06-01T21:55:11.563Z,101323.70
2019-06-01T22:00:22.626Z,101331.00
2019-06-01T22:05:27.336Z,101332.97
2019-06-01T22:10:31.669Z,101345.61
2019-06-01T22:15:35.885Z,101350.24
2019-06-01T22:20:40.118Z,101349.50
2019-06-01T22:25:44.318Z,101351.48
2019-06-01T22:30:48.528Z,101358.16
2019-06-01T22:35:52.721Z,101356.92
2019-06-01T22:40:56.941Z,101351.56
2019-06-01T22:46:01.158Z,101353.88
2019-06-01T22:51:05.663Z,101358.30
2019-06-01T22:56:09.883Z,101353.45
2019-06-01T23:01:14.111Z,101358.17
2019-06-01T23:06:18.327Z,101354.94
2019-06-01T23:11:25.333Z,101354.13
2019-06-01T23:16:29.810Z,101352.80
2019-06-01T23:21:34.139Z,101368.10
2019-06-01T23:26:38.327Z,101365.15
2019-06-01T23:31:42.531Z,101367.61
2019-06-01T23:36:46.754Z,101361.34
2019-06-01T23:41:50.944Z,101361.06
2019-06-01T23:46:55.150Z,101361.10
2019-06-01T23:51:59.392Z,101357.30
2019-06-01T23:57:03.652Z,101356.19
